This is the latest recevied weather packets stored in our database for station/object KE1THD. If no packets are shown the sender has not sent any weather packets the latest 10 day(s).
| Time | Temp. | Humidity | Pressure | Rain* | Wind** | Luminosity | Snow |
|---|---|---|---|---|---|---|---|
| 1777219693 | 16.67° C | 67% | 1016.3 hPa | 0 mm | - | 422 W/m² | - |
| 1777219390 | 16.67° C | 67% | 1016.4 hPa | 0 mm | - | 222 W/m² | - |
| 1777219086 | 17.78° C | 65% | 1016.4 hPa | 0 mm | - | 430 W/m² | - |
| 1777218782 | 18.33° C | 65% | 1016.7 hPa | 0 mm | - | 860 W/m² | - |
| 1777218477 | 17.22° C | 67% | 1016.2 hPa | 0 mm | - | 792 W/m² | - |
| 1777218173 | 15.56° C | 69% | 1016.5 hPa | 0 mm | - | 580 W/m² | - |
| 1777217870 | 15.56° C | 68% | 1016.7 hPa | 0 mm | - | 759 W/m² | - |
| 1777217565 | 15° C | 70% | 1016.5 hPa | 0 mm | - | 732 W/m² | - |
| 1777217262 | 14.44° C | 72% | 1016.5 hPa | 0 mm | - | 584 W/m² | - |
| 1777216958 | 14.44° C | 73% | 1016.9 hPa | 0 mm | - | 460 W/m² | - |
| 1777216655 | 15° C | 71% | 1016.7 hPa | 0 mm | - | 300 W/m² | - |
| 1777216351 | 14.44° C | 72% | 1016.7 hPa | 0 mm | - | 572 W/m² | - |
| 1777216050 | 14.44° C | 74% | 1016.4 hPa | 0 mm | - | 503 W/m² | - |
| 1777215745 | 14.44° C | 73% | 1016.5 hPa | 0 mm | - | 454 W/m² | - |
| 1777215441 | 13.89° C | 74% | 1016.5 hPa | 0 mm | - | 475 W/m² | - |
| 1777215138 | 14.44° C | 73% | 1016.4 hPa | 0 mm | - | 448 W/m² | - |
| 1777214833 | 13.89° C | 73% | 1016.3 hPa | 0 mm | - | 557 W/m² | - |
| 1777214532 | 13.89° C | 74% | 1016.2 hPa | 0 mm | - | 406 W/m² | - |
| 1777214228 | 13.33° C | 74% | 1016.3 hPa | 0 mm | - | 468 W/m² | - |
| 1777213926 | 13.33° C | 75% | 1016.3 hPa | 0 mm | - | 389 W/m² | - |
| 1777213621 | 13.33° C | 74% | 1016.3 hPa | 0 mm | - | 440 W/m² | - |
| 1777213318 | 13.33° C | 75% | 1016.4 hPa | 0 mm | - | 143 W/m² | - |
| 1777213014 | 14.44° C | 72% | 1016.3 hPa | 0 mm | - | 413 W/m² | - |
| 1777212712 | 12.78° C | 77% | 1016.6 hPa | 0 mm | - | 483 W/m² | - |
| 1777212411 | 12.78° C | 76% | 1016.6 hPa | 0 mm | - | 420 W/m² | - |
* Rain latest hour (hover to see other rain measurements)
** Current wind speed in m/s (hover to see current wind gust speed)